Time;durP1;ratioP1;P1;durP2;ratioP2;P2;SDS_P1;SDS_P2;PMS_P1;PMS_P2;Temp;Humidity;BMP_temperature;BMP_pressure;BME280_temperature;BME280_humidity;BME280_pressure;Samples;Min_cycle;Max_cycle;Signal;HPM_P1;HPM_P2
2021/10/09 00:00:00;;;;;;;53.75;27.60;;;;;;;8.41;100.00;103198.56;4979457;28;20033;-81
2021/10/09 00:02:25;;;;;;;55.63;28.25;;;;;;;8.35;100.00;103191.84;4982488;28;20495;-83
2021/10/09 00:04:51;;;;;;;51.67;27.38;;;;;;;8.32;100.00;103192.81;4959243;28;20031;-81
2021/10/09 00:07:16;;;;;;;54.13;28.55;;;;;;;8.29;100.00;103192.97;4943204;28;20046;-82
2021/10/09 00:09:44;;;;;;;48.20;26.42;;;;;;;8.19;100.00;103187.34;4956363;28;20118;-79
2021/10/09 00:12:09;;;;;;;48.75;27.92;;;;;;;8.23;100.00;103192.41;4954585;28;20121;-82
2021/10/09 00:14:35;;;;;;;51.92;27.65;;;;;;;8.18;100.00;103182.16;4965201;28;20113;-83
2021/10/09 00:17:00;;;;;;;51.97;27.05;;;;;;;8.09;100.00;103178.22;4959345;28;20031;-84
2021/10/09 00:19:25;;;;;;;48.67;27.15;;;;;;;8.11;100.00;103178.97;4937611;28;20069;-81
2021/10/09 00:21:51;;;;;;;54.60;27.05;;;;;;;8.06;100.00;103186.22;4937462;28;20041;-84
2021/10/09 00:24:19;;;;;;;45.60;26.15;;;;;;;7.96;100.00;103185.75;4973558;28;20030;-81
2021/10/09 00:26:46;;;;;;;47.33;26.45;;;;;;;7.95;100.00;103184.06;4951582;28;20030;-80
2021/10/09 00:29:11;;;;;;;46.63;24.77;;;;;;;7.89;100.00;103186.09;4959426;28;20022;-81
2021/10/09 00:31:37;;;;;;;47.97;25.73;;;;;;;7.85;100.00;103192.38;4940304;28;20054;-83
2021/10/09 00:34:04;;;;;;;56.13;26.52;;;;;;;7.82;100.00;103184.69;4950018;28;20126;-82
2021/10/09 00:36:30;;;;;;;42.80;24.58;;;;;;;7.75;100.00;103184.97;4938812;28;20061;-82
2021/10/09 00:38:56;;;;;;;48.92;25.70;;;;;;;7.78;100.00;103191.84;4958814;28;20400;-81
2021/10/09 00:41:22;;;;;;;48.58;25.13;;;;;;;7.71;100.00;103185.19;4955075;28;20046;-81
2021/10/09 00:43:49;;;;;;;41.85;24.80;;;;;;;7.63;100.00;103177.69;4943865;28;20544;-81
2021/10/09 00:46:14;;;;;;;47.17;27.27;;;;;;;7.62;100.00;103186.41;4937565;28;20137;-82
2021/10/09 00:48:40;;;;;;;41.17;24.65;;;;;;;7.57;100.00;103185.75;4939330;28;20052;-81
2021/10/09 00:51:06;;;;;;;50.75;26.58;;;;;;;7.56;100.00;103187.53;4945787;28;20033;-81
2021/10/09 00:53:36;;;;;;;45.17;25.85;;;;;;;7.53;100.00;103184.19;4966145;28;20038;-83
2021/10/09 00:56:03;;;;;;;44.13;26.50;;;;;;;7.48;100.00;103181.81;4977541;28;20484;-82
2021/10/09 00:58:29;;;;;;;46.33;27.38;;;;;;;7.42;100.00;103179.44;4972593;28;20026;-82
2021/10/09 01:00:55;;;;;;;47.33;26.08;;;;;;;7.41;100.00;103178.59;4956270;28;20105;-81
2021/10/09 01:03:21;;;;;;;48.25;25.60;;;;;;;7.35;100.00;103181.47;4939288;28;20037;-81
2021/10/09 01:05:48;;;;;;;48.75;26.98;;;;;;;7.30;100.00;103179.97;4965466;28;20045;-81
2021/10/09 01:08:14;;;;;;;43.45;26.05;;;;;;;7.24;100.00;103175.03;4969229;28;20038;-82
2021/10/09 01:10:41;;;;;;;43.47;25.70;;;;;;;7.23;100.00;103176.78;4940631;28;20413;-80
2021/10/09 01:13:07;;;;;;;43.72;25.80;;;;;;;7.21;100.00;103181.22;4945373;28;20541;-81
2021/10/09 01:15:34;;;;;;;51.85;26.60;;;;;;;7.17;100.00;103175.25;4931447;28;20141;-82
2021/10/09 01:18:12;;;;;;;42.88;25.77;;;;;;;7.16;100.00;103177.97;4956514;28;20042;-81
2021/10/09 01:21:04;;;;;;;44.22;25.45;;;;;;;7.08;100.00;103173.03;4954887;28;20105;-82
2021/10/09 01:23:38;;;;;;;43.88;25.75;;;;;;;7.03;100.00;103180.22;4953943;28;20084;-83
2021/10/09 01:26:06;;;;;;;43.67;25.85;;;;;;;7.04;100.00;103178.47;4942122;28;20034;-81
2021/10/09 01:28:35;;;;;;;43.15;26.85;;;;;;;6.99;100.00;103170.84;4948676;28;20035;-80
2021/10/09 01:31:01;;;;;;;48.58;27.63;;;;;;;7.00;100.00;103175.13;4963402;28;20033;-81
2021/10/09 01:33:26;;;;;;;48.20;25.80;;;;;;;6.96;100.00;103171.78;4944647;28;20432;-82
2021/10/09 01:35:55;;;;;;;46.45;27.75;;;;;;;6.94;100.00;103181.44;4947944;28;20042;-83
2021/10/09 01:38:27;;;;;;;46.13;26.77;;;;;;;6.89;100.00;103174.72;4941643;28;20048;-81
2021/10/09 01:40:55;;;;;;;43.10;25.15;;;;;;;6.86;100.00;103178.31;4940923;28;20034;-82
2021/10/09 01:43:23;;;;;;;41.70;25.20;;;;;;;6.85;100.00;103184.44;4983960;28;20033;-81
2021/10/09 01:45:48;;;;;;;49.53;26.65;;;;;;;6.78;100.00;103169.94;4944483;28;20038;-82
2021/10/09 01:48:16;;;;;;;44.05;26.58;;;;;;;6.77;100.00;103174.31;4942786;28;20602;-80
2021/10/09 01:50:43;;;;;;;41.22;25.15;;;;;;;6.75;100.00;103176.13;4940744;28;20121;-81
2021/10/09 01:53:10;;;;;;;42.97;25.02;;;;;;;6.70;100.00;103166.81;4968589;28;20050;-82
2021/10/09 01:55:37;;;;;;;46.95;26.17;;;;;;;6.61;100.00;103168.00;4944063;28;20034;-81
2021/10/09 01:58:03;;;;;;;40.47;25.38;;;;;;;6.57;100.00;103169.91;4963419;28;20113;-81
2021/10/09 02:00:29;;;;;;;43.80;26.90;;;;;;;6.57;100.00;103169.03;4950514;28;20038;-81
2021/10/09 02:03:00;;;;;;;49.13;27.08;;;;;;;6.52;100.00;103163.19;4976431;28;20033;-81
2021/10/09 02:05:27;;;;;;;46.05;26.15;;;;;;;6.48;100.00;103166.78;4942000;28;20561;-81
2021/10/09 02:07:52;;;;;;;39.65;24.52;;;;;;;6.45;100.00;103164.31;4944267;28;20092;-83
2021/10/09 02:10:18;;;;;;;45.00;25.50;;;;;;;6.53;100.00;103165.69;4942018;28;20464;-80
2021/10/09 02:12:46;;;;;;;50.15;26.02;;;;;;;6.51;100.00;103169.28;4954907;28;20053;-81
2021/10/09 02:26:08;;;;;;;43.97;24.55;;;;;;;6.33;100.00;103166.50;4964933;28;20092;-81
2021/10/09 02:28:34;;;;;;;44.45;24.95;;;;;;;6.28;100.00;103171.03;4953797;28;20833;-82
2021/10/09 02:30:59;;;;;;;48.20;25.40;;;;;;;6.29;100.00;103169.28;4963357;28;20034;-81
2021/10/09 02:33:27;;;;;;;43.22;24.38;;;;;;;6.19;100.00;103164.41;4964193;28;20041;-82
2021/10/09 02:35:53;;;;;;;44.72;25.17;;;;;;;6.19;100.00;103164.41;4942395;28;20030;-82
2021/10/09 02:38:20;;;;;;;38.55;23.23;;;;;;;6.14;100.00;103163.75;4947267;28;20108;-81
2021/10/09 02:40:49;;;;;;;52.05;26.58;;;;;;;6.17;100.00;103161.00;4941133;28;20035;-81
2021/10/09 02:43:15;;;;;;;43.63;23.60;;;;;;;6.13;100.00;103156.00;4959976;28;20448;-80
2021/10/09 02:45:41;;;;;;;44.03;24.88;;;;;;;6.11;100.00;103165.63;4956138;28;20506;-81
2021/10/09 02:48:08;;;;;;;39.97;24.08;;;;;;;6.10;100.00;103163.91;4937557;28;20034;-81
2021/10/09 02:50:39;;;;;;;43.80;24.75;;;;;;;6.07;100.00;103162.28;4944550;28;20061;-81
2021/10/09 02:53:05;;;;;;;45.42;25.45;;;;;;;6.04;100.00;103165.00;4939856;28;20062;-80
2021/10/09 02:55:30;;;;;;;44.33;25.30;;;;;;;6.06;100.00;103163.19;4931356;28;20038;-82
2021/10/09 02:57:56;;;;;;;49.47;25.90;;;;;;;5.99;100.00;103157.38;4962873;28;20083;-82
2021/10/09 03:00:22;;;;;;;43.35;25.05;;;;;;;6.01;100.00;103160.75;4962751;28;20457;-79
2021/10/09 03:02:49;;;;;;;50.42;26.42;;;;;;;5.95;100.00;103173.13;4958699;28;20061;-81
2021/10/09 03:05:15;;;;;;;46.20;26.02;;;;;;;5.94;100.00;103163.63;4939927;28;20440;-81
2021/10/09 03:07:40;;;;;;;45.90;26.23;;;;;;;5.90;100.00;103168.09;4943268;28;20730;-81
2021/10/09 03:10:08;;;;;;;45.15;25.55;;;;;;;5.87;100.00;103167.34;4955788;28;20030;-81
2021/10/09 03:12:34;;;;;;;43.38;26.10;;;;;;;5.86;100.00;103163.91;4942506;28;20038;-82
2021/10/09 03:15:00;;;;;;;43.72;26.17;;;;;;;5.83;100.00;103158.81;4942625;28;20030;-81
2021/10/09 03:17:27;;;;;;;49.30;27.88;;;;;;;5.84;100.00;103160.50;4959638;28;20088;-81
2021/10/09 03:19:52;;;;;;;46.30;26.77;;;;;;;5.80;100.00;103164.09;4958262;28;20030;-81
2021/10/09 03:22:18;;;;;;;48.42;26.85;;;;;;;5.79;100.00;103170.25;4974506;28;20035;-81
2021/10/09 03:24:44;;;;;;;45.08;27.42;;;;;;;5.77;100.00;103172.91;4957416;28;20030;-82
2021/10/09 03:27:11;;;;;;;43.00;26.00;;;;;;;5.74;100.00;103178.19;4963762;28;20120;-81
2021/10/09 03:29:37;;;;;;;57.55;28.48;;;;;;;5.77;100.00;103172.91;4955147;28;20207;-81
2021/10/09 03:32:03;;;;;;;46.00;27.02;;;;;;;5.72;100.00;103172.19;4954944;28;20491;-81
2021/10/09 03:34:32;;;;;;;41.03;25.63;;;;;;;5.71;100.00;103175.72;4942392;28;20030;-81
2021/10/09 03:37:04;;;;;;;48.03;27.85;;;;;;;5.70;100.00;103168.81;4948907;28;20472;-81
2021/10/09 03:39:38;;;;;;;44.72;26.75;;;;;;;5.66;100.00;103172.44;4950558;28;20052;-81
2021/10/09 03:42:11;;;;;;;44.38;26.83;;;;;;;5.62;100.00;103179.50;4967740;28;20034;-82
2021/10/09 03:44:47;;;;;;;50.85;27.15;;;;;;;5.56;100.00;103174.53;4943540;28;20532;-83
2021/10/09 03:47:19;;;;;;;47.85;26.20;;;;;;;5.51;100.00;103176.44;4947830;28;20052;-81
2021/10/09 03:50:06;;;;;;;41.08;23.75;;;;;;;5.47;100.00;103180.03;4960945;28;20060;-83
2021/10/09 03:55:01;;;;;;;45.45;25.17;;;;;;;5.40;100.00;103178.56;4957245;28;20038;-82
2021/10/09 03:57:28;;;;;;;47.95;25.67;;;;;;;5.36;100.00;103166.56;4955177;28;20060;-82
2021/10/09 03:59:53;;;;;;;44.40;25.83;;;;;;;5.35;100.00;103172.66;4948379;28;20121;-78
2021/10/09 04:02:20;;;;;;;46.47;24.55;;;;;;;5.33;100.00;103175.34;4942086;28;20078;-81
2021/10/09 04:04:46;;;;;;;40.42;23.35;;;;;;;5.31;100.00;103171.91;4956391;28;20041;-82
2021/10/09 04:07:11;;;;;;;36.75;23.20;;;;;;;5.30;100.00;103178.03;4938189;28;20033;-82
2021/10/09 04:09:37;;;;;;;38.97;23.10;;;;;;;5.28;100.00;103176.38;4938688;28;20045;-82
2021/10/09 04:12:03;;;;;;;39.63;22.83;;;;;;;5.23;100.00;103169.56;4940314;28;20721;-82
2021/10/09 04:14:28;;;;;;;40.88;24.85;;;;;;;5.23;100.00;103169.56;4941886;28;20485;-82
2021/10/09 04:16:54;;;;;;;43.53;24.77;;;;;;;5.16;100.00;103168.09;4942157;28;20058;-82
2021/10/09 04:19:20;;;;;;;41.75;24.55;;;;;;;5.11;100.00;103167.41;4940567;28;20129;-81
2021/10/09 04:21:46;;;;;;;43.83;25.10;;;;;;;5.06;100.00;103167.53;4957545;28;20656;-82
2021/10/09 04:24:11;;;;;;;43.33;24.48;;;;;;;5.04;100.00;103158.94;4957571;28;20133;-81
2021/10/09 04:26:38;;;;;;;45.33;25.25;;;;;;;5.03;100.00;103156.41;4953907;28;20031;-81
2021/10/09 04:29:04;;;;;;;42.38;24.88;;;;;;;5.02;100.00;103160.72;4977016;28;20030;-81
2021/10/09 04:31:29;;;;;;;40.35;23.02;;;;;;;5.01;100.00;103156.44;4941517;28;20386;-80
2021/10/09 04:33:55;;;;;;;39.05;23.67;;;;;;;4.95;100.00;103161.84;4938653;28;20432;-82
2021/10/09 04:36:21;;;;;;;40.58;22.77;;;;;;;4.95;100.00;103167.03;4940208;28;20042;-82
2021/10/09 04:38:47;;;;;;;36.67;21.48;;;;;;;4.93;100.00;103158.44;4944360;28;20582;-83
2021/10/09 04:41:13;;;;;;;38.80;23.42;;;;;;;4.93;100.00;103157.59;4958770;28;20030;-82
2021/10/09 04:43:39;;;;;;;43.78;24.40;;;;;;;4.93;100.00;103162.78;4955511;28;20041;-83
2021/10/09 04:46:05;;;;;;;49.38;25.10;;;;;;;4.92;100.00;103158.50;4964344;28;20037;-83
2021/10/09 04:48:30;;;;;;;47.85;25.65;;;;;;;4.89;100.00;103162.03;4956611;28;20428;-79
2021/10/09 04:50:56;;;;;;;44.55;25.25;;;;;;;4.81;100.00;103164.06;4941884;28;20125;-80
2021/10/09 04:53:22;;;;;;;40.00;24.55;;;;;;;4.84;100.00;103167.41;4941731;28;20484;-81
2021/10/09 04:55:49;;;;;;;47.88;25.45;;;;;;;4.81;100.00;103166.66;4959097;28;20058;-80
2021/10/09 04:58:14;;;;;;;43.03;23.45;;;;;;;4.79;100.00;103169.31;4960103;28;20034;-80
2021/10/09 05:00:40;;;;;;;45.30;25.55;;;;;;;4.80;100.00;103175.34;4941383;28;20038;-83
2021/10/09 05:03:06;;;;;;;40.17;24.48;;;;;;;4.77;100.00;103173.69;4959691;28;20054;-81
2021/10/09 05:05:33;;;;;;;40.40;23.60;;;;;;;4.70;100.00;103176.56;4941914;28;20042;-81
2021/10/09 05:07:59;;;;;;;42.10;24.13;;;;;;;4.70;100.00;103176.56;4956984;28;20664;-81
2021/10/09 05:10:28;;;;;;;51.65;25.55;;;;;;;4.72;100.00;103179.94;4940806;28;20080;-82
2021/10/09 05:12:53;;;;;;;42.97;25.42;;;;;;;4.61;100.00;103175.06;4957727;28;20033;-81
2021/10/09 05:15:19;;;;;;;44.78;24.25;;;;;;;4.57;100.00;103171.72;4922846;28;20037;-82
2021/10/09 05:17:45;;;;;;;44.92;24.55;;;;;;;4.57;100.00;103176.91;4968766;28;20035;-82
2021/10/09 05:20:10;;;;;;;36.40;23.75;;;;;;;4.59;100.00;103182.06;4941721;28;20046;-81
2021/10/09 05:22:37;;;;;;;38.00;22.42;;;;;;;4.56;100.00;103188.22;4957161;28;20042;-80
2021/10/09 05:25:05;;;;;;;42.97;23.98;;;;;;;4.51;100.00;103177.13;4957559;28;20485;-81
2021/10/09 05:27:32;;;;;;;48.00;22.90;;;;;;;4.46;100.00;103187.66;4968902;28;20037;-80
2021/10/09 05:30:04;;;;;;;39.72;23.33;;;;;;;4.45;100.00;103191.16;4956778;28;20041;-80
2021/10/09 05:32:32;;;;;;;37.97;23.75;;;;;;;4.45;100.00;103195.50;4956858;28;20041;-82
2021/10/09 05:34:58;;;;;;;42.20;24.45;;;;;;;4.45;100.00;103203.31;4956551;28;20481;-82
2021/10/09 05:37:24;;;;;;;41.17;23.27;;;;;;;4.41;100.00;103196.50;4938977;28;20031;-82
2021/10/09 05:39:50;;;;;;;42.85;22.08;;;;;;;4.38;100.00;103202.63;4937878;28;20034;-81
2021/10/09 05:42:16;;;;;;;37.00;20.92;;;;;;;4.42;100.00;103201.63;4943105;28;20413;-82
2021/10/09 05:44:41;;;;;;;36.08;20.70;;;;;;;4.39;100.00;103196.53;4939490;28;20093;-81
2021/10/09 05:47:07;;;;;;;32.22;20.90;;;;;;;4.41;100.00;103196.50;4952684;28;20409;-81
2021/10/09 05:49:34;;;;;;;38.28;21.38;;;;;;;4.42;100.00;103195.59;4938260;28;20042;-81
2021/10/09 05:52:09;;;;;;;35.75;21.25;;;;;;;4.43;100.00;103202.50;4935180;28;20036;-81
2021/10/09 05:54:44;;;;;;;34.55;20.75;;;;;;;4.45;100.00;103204.16;4960362;28;20448;-81
2021/10/09 05:57:13;;;;;;;37.28;22.67;;;;;;;4.51;100.00;103199.66;4953993;28;20413;-82
2021/10/09 06:31:18;;;;;;;38.53;23.67;;;;;;;5.18;100.00;103215.72;4966913;28;20038;-82
2021/10/09 06:38:03;;;;;;;39.22;22.80;;;;;;;5.36;100.00;103218.59;4953194;28;20042;-81
2021/10/09 06:43:42;;;;;;;35.70;21.73;;;;;;;5.65;100.00;103234.09;4959325;28;20038;-79
2021/10/09 06:59:32;;;;;;;40.75;20.00;;;;;;;6.31;100.00;103246.53;4963960;28;20408;-81
2021/10/09 07:01:59;;;;;;;32.47;17.17;;;;;;;6.44;100.00;103244.28;4939606;28;20067;-78
2021/10/09 07:04:26;;;;;;;32.80;19.17;;;;;;;6.48;100.00;103251.09;4982277;28;20434;-80
2021/10/09 07:06:53;;;;;;;35.33;17.98;;;;;;;6.57;100.00;103252.50;4925609;28;20045;-83
2021/10/09 07:09:28;;;;;;;39.17;18.80;;;;;;;6.71;100.00;103252.81;4973503;28;20030;-79
2021/10/09 07:11:59;;;;;;;35.17;17.60;;;;;;;6.81;100.00;103258.53;4940611;28;20030;-80
2021/10/09 07:14:24;;;;;;;35.70;18.45;;;;;;;6.94;100.00;103258.88;4940370;28;20485;-81
2021/10/09 07:16:50;;;;;;;31.58;17.98;;;;;;;6.98;100.00;103263.91;4958752;28;20042;-83
2021/10/09 07:19:16;;;;;;;30.13;17.58;;;;;;;7.07;100.00;103262.72;4946444;28;20040;-81
2021/10/09 07:21:43;;;;;;;37.70;17.08;;;;;;;7.12;100.00;103255.53;4957545;28;20089;-81
2021/10/09 07:24:08;;;;;;;31.58;16.77;;;;;;;7.26;100.00;103262.81;4974209;28;20038;-80
2021/10/09 07:26:34;;;;;;;31.65;16.25;;;;;;;7.48;100.00;103262.75;4941536;28;20034;-82
2021/10/09 07:29:00;;;;;;;29.20;16.27;;;;;;;7.54;100.00;103266.88;4958232;28;20487;-81
2021/10/09 07:31:26;;;;;;;37.55;16.85;;;;;;;7.59;100.00;103263.16;4972806;28;20034;-80
2021/10/09 07:33:51;;;;;;;27.08;15.63;;;;;;;7.60;100.00;103267.44;4943212;28;20507;-77
2021/10/09 07:36:17;;;;;;;29.38;16.17;;;;;;;7.69;100.00;103268.84;4965823;28;20030;-80
2021/10/09 07:38:44;;;;;;;35.20;16.20;;;;;;;7.73;100.00;103265.16;4973419;28;20061;-81
2021/10/09 07:41:10;;;;;;;32.78;16.48;;;;;;;7.82;100.00;103271.78;4957476;28;20041;-81
2021/10/09 07:43:35;;;;;;;33.05;14.88;;;;;;;7.93;100.00;103272.16;4959770;28;20088;-79
2021/10/09 07:46:01;;;;;;;26.80;14.88;;;;;;;8.01;100.00;103261.34;4956254;28;20501;-78
2021/10/09 07:48:26;;;;;;;37.60;15.02;;;;;;;8.13;99.27;103271.25;4938147;28;20042;-80
2021/10/09 07:50:52;;;;;;;26.02;13.82;;;;;;;8.22;97.50;103280.47;4942899;28;20563;-81
2021/10/09 07:53:17;;;;;;;34.95;14.13;;;;;;;8.27;96.45;103282.84;4944333;28;20085;-80
2021/10/09 07:55:43;;;;;;;30.63;14.15;;;;;;;8.33;96.35;103283.44;4945583;28;20092;-85
2021/10/09 07:58:08;;;;;;;28.17;14.30;;;;;;;8.35;96.93;103288.59;4951467;28;20034;-82
2021/10/09 08:00:33;;;;;;;37.10;14.85;;;;;;;8.39;94.21;103277.91;4974776;28;20551;-81
2021/10/09 08:03:03;;;;;;;32.17;13.85;;;;;;;8.48;96.10;103283.69;4940129;28;20117;-79
2021/10/09 08:05:29;;;;;;;27.08;14.27;;;;;;;8.60;95.52;103284.91;4962815;28;20520;-83
2021/10/09 08:07:54;;;;;;;28.33;14.15;;;;;;;8.62;95.17;103285.66;4952509;28;20110;-82
2021/10/09 08:10:20;;;;;;;34.42;14.00;;;;;;;8.74;93.58;103285.09;4940907;28;20691;-82
2021/10/09 08:12:45;;;;;;;28.05;13.98;;;;;;;8.88;91.50;103285.28;4939882;28;20090;-81
2021/10/09 08:15:11;;;;;;;27.77;13.80;;;;;;;9.03;90.29;103280.25;4932684;28;20516;-81
2021/10/09 08:17:37;;;;;;;32.30;13.63;;;;;;;9.13;87.17;103286.72;4942846;28;20084;-83
2021/10/09 08:20:05;;;;;;;28.58;14.05;;;;;;;9.17;88.97;103280.41;4942673;28;20037;-82
2021/10/09 08:22:33;;;;;;;28.35;13.57;;;;;;;9.24;88.58;103273.94;4958749;28;20069;-82
2021/10/09 08:25:26;;;;;;;26.38;13.32;;;;;;;9.22;89.69;103278.41;4966189;28;20084;-81
2021/10/09 08:36:12;;;;;;;27.20;12.35;;;;;;;9.46;82.07;103284.22;4966282;28;20038;-82
2021/10/09 08:41:16;;;;;;;26.23;12.57;;;;;;;9.49;86.58;103293.69;4956180;28;20042;-82
2021/10/09 08:43:46;;;;;;;23.00;11.73;;;;;;;9.53;88.03;103277.75;4958292;28;20034;-81
2021/10/09 08:46:12;;;;;;;24.58;12.50;;;;;;;9.59;84.34;103280.94;4964330;28;20037;-83
2021/10/09 08:48:42;;;;;;;27.58;12.02;;;;;;;9.76;85.59;103288.81;4986626;28;20041;-82
2021/10/09 08:51:08;;;;;;;24.45;12.52;;;;;;;9.76;83.30;103278.34;4960367;28;20026;-85
2021/10/09 08:53:42;;;;;;;30.58;12.77;;;;;;;9.71;83.08;103275.94;4936998;28;20417;-83
2021/10/09 08:56:08;;;;;;;23.42;11.70;;;;;;;9.66;83.40;103272.72;4942777;28;20094;-84
2021/10/09 08:58:40;;;;;;;35.30;11.77;;;;;;;9.81;82.14;103273.69;4959196;28;20080;-83
2021/10/09 09:01:20;;;;;;;32.80;12.70;;;;;;;9.84;82.29;103280.56;4959046;28;20628;-83
2021/10/09 09:04:11;;;;;;;27.23;11.77;;;;;;;9.85;81.83;103272.63;4960907;28;20093;-81
2021/10/09 09:26:25;;;;;;;20.20;8.93;;;;;;;10.73;72.04;103283.66;4947748;28;20034;-80
2021/10/09 09:34:48;;;;;;;21.75;9.50;;;;;;;10.97;74.14;103273.56;4958235;28;20137;-81
2021/10/09 09:38:54;;;;;;;21.40;8.57;;;;;;;11.04;70.11;103266.22;4950028;28;20042;-83
2021/10/09 09:40:13;;;;;;;19.90;9.30;;;;;;;11.17;70.74;103261.94;4959530;28;20042;-83
2021/10/09 09:42:50;;;;;;;19.08;8.88;;;;;;;11.31;70.87;103253.25;4943605;28;20583;-81
2021/10/09 09:45:21;;;;;;;17.92;9.25;;;;;;;11.35;70.50;103254.75;4949706;28;20037;-82
2021/10/09 09:47:48;;;;;;;16.15;9.05;;;;;;;11.45;70.62;103255.91;4960562;28;20027;-82
2021/10/09 09:50:15;;;;;;;19.73;8.50;;;;;;;11.59;68.75;103249.00;4962958;28;20038;-83
2021/10/09 09:52:44;;;;;;;18.73;8.30;;;;;;;11.64;70.34;103246.91;4997248;28;20044;-82
2021/10/09 09:55:14;;;;;;;17.90;7.50;;;;;;;11.79;66.50;103248.63;4960282;28;20447;-82
2021/10/09 09:57:41;;;;;;;17.50;7.55;;;;;;;11.81;65.64;103251.16;4970661;28;20042;-82
2021/10/09 10:00:09;;;;;;;14.85;6.45;;;;;;;11.85;63.17;103250.88;4991584;28;20121;-83
2021/10/09 10:02:54;;;;;;;18.98;7.03;;;;;;;11.93;66.47;103244.34;4951294;28;20129;-83
2021/10/09 10:05:24;;;;;;;21.75;7.43;;;;;;;12.04;67.42;103237.47;4963508;28;20121;-83
2021/10/09 10:07:51;;;;;;;14.15;6.68;;;;;;;12.10;62.91;103243.31;4947145;28;20081;-83
2021/10/09 10:10:16;;;;;;;16.83;6.57;;;;;;;12.12;65.09;103246.69;4962999;28;20061;-82
2021/10/09 10:12:44;;;;;;;16.33;6.55;;;;;;;12.21;63.04;103244.31;4964167;28;20117;-84
2021/10/09 10:15:10;;;;;;;15.48;5.95;;;;;;;12.29;62.87;103250.88;4962022;28;20029;-83
2021/10/09 10:17:47;;;;;;;17.83;5.90;;;;;;;12.46;59.53;103255.91;4946748;28;20500;-81
2021/10/09 10:20:14;;;;;;;14.13;6.43;;;;;;;12.34;61.17;103246.16;4978879;28;20496;-80
2021/10/09 10:22:40;;;;;;;20.58;6.47;;;;;;;12.45;59.37;103254.22;4948338;28;20039;-83
2021/10/09 10:25:26;;;;;;;10.48;6.28;;;;;;;12.54;64.10;103252.81;4961391;28;20057;-81
2021/10/09 10:28:05;;;;;;;15.73;5.80;;;;;;;12.49;60.23;103246.97;4971868;28;20096;-82
2021/10/09 10:30:41;;;;;;;19.40;7.03;;;;;;;12.55;60.74;103250.06;4959110;28;20030;-81
2021/10/09 10:33:07;;;;;;;18.00;6.75;;;;;;;12.60;60.05;103248.00;4955816;28;20026;-81
2021/10/09 10:35:32;;;;;;;23.05;6.82;;;;;;;12.63;62.47;103249.56;4964153;28;20044;-82
2021/10/09 10:38:05;;;;;;;12.98;5.57;;;;;;;12.66;56.44;103255.50;4949099;28;20034;-80
2021/10/09 10:40:51;;;;;;;14.32;6.43;;;;;;;12.61;58.50;103240.94;4960979;28;20101;-82
2021/10/09 10:46:26;;;;;;;13.73;6.05;;;;;;;12.61;61.14;103246.19;4953851;28;20048;-80
2021/10/09 10:51:42;;;;;;;13.45;6.53;;;;;;;12.85;59.10;103251.69;4964228;28;20125;-81
2021/10/09 10:57:02;;;;;;;14.25;6.35;;;;;;;12.95;57.82;103246.66;4985851;28;20037;-82
2021/10/09 10:59:30;;;;;;;13.73;5.90;;;;;;;12.89;60.15;103247.06;4942233;28;20177;-80
2021/10/09 11:02:10;;;;;;;14.23;7.05;;;;;;;12.79;57.51;103245.03;4939807;28;20030;-81
2021/10/09 11:04:42;;;;;;;18.80;5.88;;;;;;;12.70;58.42;103242.97;4961591;28;20041;-81
2021/10/09 11:07:08;;;;;;;15.82;6.32;;;;;;;12.84;59.11;103242.91;4944404;28;20042;-81
2021/10/09 11:09:36;;;;;;;16.25;6.43;;;;;;;12.85;59.23;103244.59;4959106;28;20042;-82
2021/10/09 11:12:02;;;;;;;10.93;6.05;;;;;;;12.91;60.23;103242.53;4961201;28;20023;-82
2021/10/09 11:14:29;;;;;;;15.05;6.63;;;;;;;13.01;59.58;103233.88;4945345;28;20038;-81
2021/10/09 11:17:04;;;;;;;14.10;6.13;;;;;;;13.05;59.29;103235.41;4941388;28;20031;-82
2021/10/09 11:20:00;;;;;;;15.73;6.82;;;;;;;13.13;62.78;103229.63;4961048;28;20034;-83
2021/10/09 11:22:37;;;;;;;16.88;6.63;;;;;;;13.23;61.26;103221.94;4941494;28;20050;-81
2021/10/09 11:25:03;;;;;;;18.55;6.70;;;;;;;13.32;60.42;103223.16;4962068;28;20105;-80
2021/10/09 11:27:35;;;;;;;15.07;6.18;;;;;;;13.48;61.59;103225.56;4975885;28;20045;-82
2021/10/09 11:30:09;;;;;;;15.55;6.80;;;;;;;13.54;61.62;103228.66;4958967;28;20515;-82
2021/10/09 11:32:37;;;;;;;14.48;7.05;;;;;;;13.50;60.83;103226.31;4959842;28;20038;-82
2021/10/09 11:35:04;;;;;;;14.25;6.53;;;;;;;13.46;60.45;103223.03;4945412;28;20097;-84
2021/10/09 11:37:32;;;;;;;17.80;6.95;;;;;;;13.54;59.15;103225.13;4947056;28;20492;-81
2021/10/09 11:40:00;;;;;;;17.52;6.88;;;;;;;13.51;60.72;103225.38;4979029;28;20058;-81
2021/10/09 11:42:29;;;;;;;18.88;7.22;;;;;;;13.52;62.65;103222.59;4978009;28;20053;-81
2021/10/09 11:45:13;;;;;;;13.90;6.50;;;;;;;13.52;60.87;103214.69;4977305;28;20038;-80
2021/10/09 11:55:59;;;;;;;18.27;6.30;;;;;;;13.52;60.18;103222.59;4960680;28;20030;-82
2021/10/09 11:58:25;;;;;;;12.75;6.40;;;;;;;13.51;59.53;103215.66;4953876;28;20042;-81
2021/10/09 12:00:50;;;;;;;16.45;6.47;;;;;;;13.52;60.17;103212.06;4941955;28;20572;-81
2021/10/09 12:03:25;;;;;;;15.68;6.53;;;;;;;13.72;59.21;103213.31;4941596;28;20106;-80
2021/10/09 12:06:11;;;;;;;15.63;6.32;;;;;;;13.67;58.14;103207.53;4940980;28;20043;-82
2021/10/09 12:08:47;;;;;;;17.95;6.20;;;;;;;13.63;58.02;103209.53;4940662;28;20043;-81
2021/10/09 12:11:31;;;;;;;17.33;6.38;;;;;;;13.68;58.26;103203.94;4941167;28;20031;-83
2021/10/09 12:14:02;;;;;;;14.85;6.18;;;;;;;13.99;58.65;103210.56;4940497;28;20112;-84
2021/10/09 12:16:35;;;;;;;14.60;6.30;;;;;;;14.20;56.98;103204.66;4941815;28;20181;-81
2021/10/09 12:19:05;;;;;;;17.27;5.93;;;;;;;14.39;58.19;103206.81;4940748;28;20046;-82
2021/10/09 12:21:37;;;;;;;19.60;6.30;;;;;;;14.58;59.70;103206.38;4994923;28;20035;-84
2021/10/09 12:24:16;;;;;;;19.27;6.25;;;;;;;14.80;55.83;103197.69;4963367;28;20092;-83
2021/10/09 12:26:42;;;;;;;13.90;5.32;;;;;;;14.89;54.74;103202.28;4971493;28;20026;-81
2021/10/09 12:29:09;;;;;;;11.93;5.63;;;;;;;15.02;51.87;103196.09;4947104;28;20137;-82
2021/10/09 12:31:45;;;;;;;18.75;6.13;;;;;;;15.15;52.20;103199.50;4941228;28;20038;-81
2021/10/09 12:34:26;;;;;;;17.52;6.57;;;;;;;15.24;53.66;103195.28;4957081;28;20180;-81
2021/10/09 12:37:27;;;;;;;15.18;5.93;;;;;;;15.51;54.31;103189.69;4941318;28;20034;-81
2021/10/09 12:40:08;;;;;;;14.80;6.07;;;;;;;15.70;53.71;103186.44;4941408;28;20141;-83
2021/10/09 12:42:34;;;;;;;19.83;5.60;;;;;;;15.90;52.59;103185.75;4941586;28;20042;-83
2021/10/09 12:45:00;;;;;;;16.60;5.22;;;;;;;16.39;49.15;103178.28;4957451;28;20042;-84
2021/10/09 12:47:26;;;;;;;14.93;5.60;;;;;;;16.97;46.79;103183.25;4926206;28;20133;-81
2021/10/09 12:49:51;;;;;;;9.95;4.70;;;;;;;17.73;45.75;103179.44;4941773;28;20057;-83
2021/10/09 12:52:16;;;;;;;11.80;4.97;;;;;;;17.99;42.89;103182.44;4941161;28;20038;-82
2021/10/09 12:54:42;;;;;;;14.45;4.97;;;;;;;18.28;43.23;103185.16;4957386;28;20508;-84
2021/10/09 12:57:09;;;;;;;16.83;5.50;;;;;;;18.36;41.14;103182.66;4952118;28;20038;-83
2021/10/09 12:59:35;;;;;;;19.85;5.18;;;;;;;17.98;44.34;103178.97;4957462;28;20045;-85
2021/10/09 13:02:02;;;;;;;13.02;5.03;;;;;;;18.17;41.71;103177.31;4960628;28;20030;-84
2021/10/09 13:04:27;;;;;;;14.95;4.93;;;;;;;17.80;42.44;103178.75;4960555;28;20042;-82
2021/10/09 13:06:53;;;;;;;14.00;5.00;;;;;;;17.08;42.49;103169.91;4959860;28;20041;-82
2021/10/09 13:09:18;;;;;;;19.83;5.25;;;;;;;16.59;45.86;103168.69;4960611;28;20050;-83
2021/10/09 13:11:59;;;;;;;17.75;4.72;;;;;;;16.30;45.17;103160.50;4960801;28;20069;-84
2021/10/09 13:14:25;;;;;;;16.70;5.20;;;;;;;16.01;45.27;103163.72;4947760;28;20034;-83
2021/10/09 13:16:51;;;;;;;16.67;5.35;;;;;;;15.86;45.88;103157.84;4946157;28;20108;-86